createdAt,value
2023-04-22T04:21:11.500Z,5.05
2023-04-22T04:22:22.106Z,5.07
2023-04-22T04:23:36.146Z,4.85
2023-04-22T04:24:42.474Z,5.18
2023-04-22T04:25:56.471Z,4.97
2023-04-22T04:27:00.801Z,4.90
2023-04-22T04:28:12.871Z,4.50
2023-04-22T04:29:17.937Z,4.88
2023-04-22T04:30:27.899Z,4.82
2023-04-22T04:32:47.296Z,4.65
2023-04-22T04:33:53.309Z,4.15
2023-04-22T04:34:57.893Z,4.50
2023-04-22T04:37:48.680Z,4.47
2023-04-22T04:38:54.351Z,4.60
2023-04-22T04:41:41.853Z,4.82
2023-04-22T04:42:44.073Z,4.95
2023-04-22T04:43:52.474Z,4.82
2023-04-22T04:45:16.639Z,4.47
2023-04-22T04:46:27.477Z,4.72
2023-04-22T04:47:30.257Z,4.40
2023-04-22T04:48:42.510Z,4.68
2023-04-22T04:49:45.970Z,4.35
2023-04-22T04:50:50.387Z,4.55
2023-04-22T04:51:52.469Z,4.70
2023-04-22T04:52:58.147Z,4.97
2023-04-22T04:54:08.969Z,4.70
2023-04-22T04:55:45.047Z,4.40
2023-04-22T04:56:54.883Z,4.28
2023-04-22T04:57:56.924Z,3.92
2023-04-22T04:59:52.081Z,3.88
2023-04-22T05:01:01.399Z,3.53
2023-04-22T05:02:03.891Z,4.25
2023-04-22T05:03:06.620Z,4.10
2023-04-22T05:04:09.251Z,4.00
2023-04-22T05:05:15.106Z,4.43
2023-04-22T05:06:21.410Z,3.80
2023-04-22T05:07:38.064Z,3.95
2023-04-22T05:08:41.946Z,4.13
2023-04-22T05:09:47.528Z,3.65
2023-04-22T05:10:49.480Z,3.67
2023-04-22T05:16:07.054Z,3.95
2023-04-22T05:17:43.335Z,3.90
2023-04-22T05:26:15.962Z,3.92
2023-04-22T05:27:34.833Z,3.40
2023-04-22T05:34:34.651Z,2.97
2023-04-22T05:40:37.261Z,2.40
2023-04-22T05:41:46.654Z,2.90
2023-04-22T05:42:49.263Z,2.30
2023-04-22T05:43:54.621Z,2.28
2023-04-22T05:51:56.222Z,2.90
2023-04-22T05:53:05.498Z,2.85
2023-04-22T05:54:21.394Z,2.13
2023-04-22T05:55:27.612Z,2.20
2023-04-22T05:56:36.341Z,2.65
2023-04-22T06:00:40.883Z,2.70
2023-04-22T06:02:29.688Z,2.53
2023-04-22T06:03:35.351Z,2.50
2023-04-22T06:04:42.686Z,2.55
2023-04-22T06:07:27.466Z,2.60
2023-04-22T06:08:31.715Z,2.75
2023-04-22T06:09:35.889Z,2.15
2023-04-22T06:12:02.924Z,2.50
2023-04-22T06:16:35.377Z,2.85
2023-04-22T06:17:41.066Z,2.30
2023-04-22T06:18:47.290Z,2.40
2023-04-22T06:19:49.792Z,1.75
2023-04-22T06:22:45.758Z,1.83
2023-04-22T06:24:11.051Z,1.80
2023-04-22T06:25:21.392Z,1.83
2023-04-22T06:27:04.207Z,1.77
2023-04-22T06:30:16.273Z,1.73
2023-04-22T06:32:14.500Z,2.63
2023-04-22T06:37:18.865Z,2.05
2023-04-22T06:39:12.295Z,2.25
2023-04-22T06:40:51.816Z,2.25
2023-04-22T06:42:03.827Z,2.67
2023-04-22T06:43:22.752Z,1.98
2023-04-22T06:45:04.561Z,2.50
2023-04-22T06:46:30.138Z,2.40
2023-04-22T06:48:32.231Z,2.28
2023-04-22T06:50:15.907Z,2.00
2023-04-22T06:54:07.703Z,2.22
2023-04-22T06:55:41.527Z,2.40
2023-04-22T06:56:44.505Z,2.03
2023-04-22T06:59:30.318Z,2.20
2023-04-22T07:00:32.816Z,1.85
2023-04-22T07:01:35.932Z,2.10
2023-04-22T07:02:38.202Z,2.00
2023-04-22T07:05:04.862Z,1.70
2023-04-22T07:06:10.679Z,2.13
2023-04-22T07:07:13.440Z,1.90
2023-04-22T07:08:21.607Z,1.80
2023-04-22T07:09:23.820Z,2.08
2023-04-22T07:10:29.540Z,2.17
2023-04-22T07:12:04.870Z,2.47
2023-04-22T07:13:07.450Z,1.73
2023-04-22T07:14:10.716Z,1.70
2023-04-22T07:16:54.342Z,1.92
2023-04-22T07:17:58.111Z,1.73
2023-04-22T07:19:01.392Z,1.60
2023-04-22T07:20:05.588Z,1.60
2023-04-22T07:21:37.608Z,1.70
2023-04-22T07:22:42.621Z,1.75
2023-04-22T07:23:58.239Z,1.65
2023-04-22T07:25:07.517Z,1.77
2023-04-22T07:26:21.601Z,1.90
2023-04-22T07:27:34.711Z,1.73
2023-04-22T07:28:38.375Z,1.83
2023-04-22T07:29:41.298Z,1.70
2023-04-22T07:30:45.512Z,1.80
2023-04-22T07:31:47.869Z,1.52
2023-04-22T07:32:50.394Z,1.60
2023-04-22T07:33:58.715Z,1.70
2023-04-22T07:35:01.866Z,1.50
2023-04-22T07:36:07.153Z,1.95
2023-04-22T07:37:17.071Z,1.60
2023-04-22T07:38:27.367Z,1.67
2023-04-22T07:39:51.740Z,1.83
2023-04-22T07:41:22.177Z,1.90
2023-04-22T07:47:14.776Z,2.58
2023-04-22T07:48:18.182Z,1.80
2023-04-22T07:49:20.079Z,2.03
2023-04-22T07:50:22.707Z,1.80
2023-04-22T07:51:25.999Z,1.95
2023-04-22T07:52:29.123Z,1.20
2023-04-22T07:53:31.049Z,1.55
2023-04-22T07:54:33.080Z,1.45
2023-04-22T07:55:35.360Z,1.73
2023-04-22T07:56:37.525Z,1.40
2023-04-22T07:57:41.324Z,1.60
2023-04-22T07:58:47.382Z,1.73
2023-04-22T07:59:54.944Z,1.70
2023-04-22T08:00:58.451Z,1.47
2023-04-22T08:02:00.803Z,1.50
2023-04-22T08:03:03.924Z,1.70
2023-04-22T08:04:06.403Z,1.80
2023-04-22T08:05:08.808Z,2.10
2023-04-22T08:06:11.050Z,1.30
2023-04-22T08:07:32.624Z,1.58
2023-04-22T08:08:37.721Z,1.60
2023-04-22T08:09:39.839Z,1.92
2023-04-22T08:10:42.319Z,1.60
2023-04-22T08:11:44.455Z,1.65
2023-04-22T08:12:46.506Z,2.20
2023-04-22T08:13:48.453Z,2.30
2023-04-22T08:14:50.926Z,1.77
2023-04-22T08:15:54.353Z,2.00
2023-04-22T08:17:03.049Z,2.10
2023-04-22T08:18:09.272Z,1.50
2023-04-22T08:19:11.220Z,1.88
2023-04-22T08:20:18.197Z,2.50
2023-04-22T08:21:20.077Z,1.85
2023-04-22T08:22:23.931Z,2.13
2023-04-22T08:23:29.367Z,1.83
2023-04-22T08:24:32.948Z,1.70
2023-04-22T08:25:36.358Z,1.75
2023-04-22T08:26:39.896Z,1.70
2023-04-22T08:27:41.695Z,1.90
2023-04-22T08:28:43.726Z,2.00
2023-04-22T08:29:45.691Z,1.95
2023-04-22T08:30:47.734Z,1.98
2023-04-22T08:31:49.824Z,1.70
2023-04-22T08:32:53.859Z,1.90
2023-04-22T08:33:56.039Z,1.83
2023-04-22T08:35:04.440Z,1.83
2023-04-22T08:36:11.754Z,1.73
2023-04-22T08:38:32.649Z,1.80
2023-04-22T08:39:35.734Z,1.40
2023-04-22T08:40:42.857Z,1.65
2023-04-22T08:41:48.066Z,2.00
2023-04-22T08:42:52.159Z,2.00
2023-04-22T08:43:54.439Z,2.05
2023-04-22T08:45:00.696Z,1.60
2023-04-22T08:46:03.014Z,1.55
2023-04-22T08:47:05.330Z,1.70
2023-04-22T08:48:09.105Z,1.35
2023-04-22T08:49:13.090Z,1.50
2023-04-22T08:50:15.949Z,1.50
2023-04-22T08:51:21.030Z,1.50
2023-04-22T08:52:31.791Z,1.80
2023-04-22T08:53:34.794Z,2.00
2023-04-22T08:54:39.030Z,1.85
2023-04-22T08:55:50.222Z,1.65
2023-04-22T08:56:52.936Z,1.63
2023-04-22T08:58:00.157Z,1.77
2023-04-22T08:59:05.257Z,2.20
2023-04-22T09:00:09.881Z,1.83
2023-04-22T09:02:39.071Z,1.50
2023-04-22T09:03:42.669Z,1.70
2023-04-22T09:04:47.588Z,1.58
2023-04-22T09:05:53.218Z,1.67
2023-04-22T09:06:59.042Z,1.77
2023-04-22T09:08:04.913Z,1.65
2023-04-22T09:09:09.351Z,1.60
2023-04-22T09:10:13.268Z,1.50
2023-04-22T09:11:15.952Z,1.70
2023-04-22T09:12:42.800Z,1.50
2023-04-22T09:14:45.470Z,1.80
2023-04-22T09:16:34.084Z,1.80
2023-04-22T09:20:49.566Z,2.03
2023-04-22T09:21:54.881Z,1.98
2023-04-22T09:23:01.919Z,2.28
2023-04-22T09:24:08.021Z,2.75
2023-04-22T09:25:19.893Z,2.88
2023-04-22T09:26:26.342Z,2.15
2023-04-22T09:27:34.593Z,2.65
2023-04-22T09:28:51.204Z,2.45
2023-04-22T09:29:56.689Z,2.28
2023-04-22T09:31:02.692Z,2.03
2023-04-22T09:32:14.253Z,2.00
2023-04-22T09:33:17.730Z,1.88
2023-04-22T09:34:22.170Z,2.42
2023-04-22T09:35:34.266Z,2.42
2023-04-22T09:36:37.926Z,2.15
2023-04-22T09:37:48.779Z,2.25
2023-04-22T09:38:54.163Z,2.38
2023-04-22T09:39:56.205Z,1.92
2023-04-22T09:40:59.195Z,2.28
2023-04-22T09:42:01.329Z,1.80
2023-04-22T09:43:06.398Z,1.80
2023-04-22T09:53:19.884Z,2.45
2023-04-22T09:54:23.601Z,2.30
2023-04-22T09:55:27.380Z,2.03
2023-04-22T09:56:48.846Z,2.00
2023-04-22T09:57:58.117Z,1.92
2023-04-22T09:59:04.446Z,1.92
2023-04-22T10:00:11.679Z,2.45
2023-04-22T10:01:19.667Z,2.67
2023-04-22T10:02:32.882Z,2.15
2023-04-22T10:03:35.381Z,2.20
2023-04-22T10:04:39.253Z,2.42
2023-04-22T10:05:44.946Z,2.35
2023-04-22T10:06:47.768Z,2.60
2023-04-22T10:07:50.334Z,2.47
2023-04-22T10:08:52.744Z,2.90
2023-04-22T10:09:54.627Z,2.33
2023-04-22T10:10:57.899Z,2.40
2023-04-22T10:12:00.334Z,2.33
2023-04-22T10:13:04.390Z,2.05
2023-04-22T10:14:06.553Z,2.75
2023-04-22T10:15:09.042Z,2.80
2023-04-22T10:16:11.591Z,2.75
2023-04-22T10:17:14.144Z,3.08
2023-04-22T10:18:21.665Z,3.45
2023-04-22T10:19:25.909Z,3.20
2023-04-22T10:20:29.976Z,3.92
2023-04-22T10:21:34.319Z,2.97
2023-04-22T10:22:42.373Z,3.50
2023-04-22T10:23:51.896Z,3.60
2023-04-22T10:24:56.127Z,3.70
2023-04-22T10:25:59.066Z,2.95
2023-04-22T10:27:08.923Z,3.67
2023-04-22T10:28:11.354Z,2.92
2023-04-22T10:29:16.841Z,3.15
2023-04-22T10:30:28.901Z,3.00
2023-04-22T10:31:39.341Z,2.92
2023-04-22T10:32:41.564Z,3.20
2023-04-22T10:33:44.025Z,2.92
2023-04-22T10:34:49.914Z,2.70
2023-04-22T10:36:18.238Z,3.20
2023-04-22T10:37:21.876Z,3.20
2023-04-22T10:38:23.794Z,2.80
2023-04-22T10:39:26.986Z,3.17
2023-04-22T10:40:29.233Z,3.40
2023-04-22T10:41:34.264Z,3.72
2023-04-22T10:42:37.140Z,4.07
2023-04-22T10:43:55.691Z,4.00
2023-04-22T10:45:02.297Z,4.05
2023-04-22T10:46:04.464Z,4.63
2023-04-22T10:47:06.707Z,5.63
2023-04-22T10:48:08.902Z,4.82
2023-04-22T10:49:18.331Z,4.75
2023-04-22T10:50:28.848Z,4.38
2023-04-22T10:51:47.314Z,4.55
2023-04-22T10:52:56.440Z,4.57
2023-04-22T10:53:59.981Z,4.50
2023-04-22T10:55:02.694Z,5.68
2023-04-22T10:56:19.694Z,5.15
2023-04-22T10:57:24.988Z,5.18
2023-04-22T10:58:27.006Z,4.78
2023-04-22T10:59:30.445Z,4.80
2023-04-22T11:00:53.055Z,4.40
2023-04-22T11:02:05.643Z,5.60
2023-04-22T11:03:12.202Z,6.63
2023-04-22T11:04:23.195Z,4.10
2023-04-22T11:05:27.654Z,3.53
2023-04-22T11:06:31.204Z,3.67
2023-04-22T11:07:35.413Z,4.43
2023-04-22T11:08:37.465Z,4.22
2023-04-22T11:09:41.025Z,5.10
2023-04-22T11:10:45.919Z,8.82
2023-04-22T11:11:52.449Z,5.30
2023-04-22T11:12:57.584Z,8.85
2023-04-22T11:14:00.089Z,6.22
2023-04-22T11:15:11.039Z,3.53
2023-04-22T11:16:13.160Z,4.05
2023-04-22T11:17:15.332Z,4.30
2023-04-22T11:18:25.516Z,3.95
2023-04-22T11:19:27.867Z,3.45
2023-04-22T11:20:31.251Z,3.67
2023-04-22T11:21:35.411Z,2.83
2023-04-22T11:22:39.986Z,2.92
2023-04-22T11:23:51.665Z,3.00
2023-04-22T11:25:04.186Z,3.20
2023-04-22T11:26:07.688Z,3.17
2023-04-22T11:27:12.407Z,2.65
2023-04-22T11:28:14.517Z,3.10
2023-04-22T11:29:16.414Z,3.20
2023-04-22T11:30:24.296Z,3.53
2023-04-22T11:31:27.151Z,3.33
2023-04-22T11:32:30.006Z,3.42
2023-04-22T11:33:41.237Z,3.20
2023-04-22T11:34:46.221Z,3.55
2023-04-22T11:35:49.805Z,4.20
2023-04-22T11:37:06.898Z,4.10
2023-04-22T11:38:09.529Z,6.07
2023-04-22T11:39:15.495Z,4.50
2023-04-22T11:41:28.078Z,4.15
2023-04-22T11:42:30.623Z,3.67
2023-04-22T11:43:32.670Z,4.00
2023-04-22T11:44:36.000Z,3.55
2023-04-22T11:45:39.056Z,3.92
2023-04-22T11:46:44.425Z,3.72
2023-04-22T11:47:51.445Z,4.07
2023-04-22T11:48:53.540Z,4.00
2023-04-22T11:50:02.514Z,3.40
2023-04-22T11:51:11.547Z,3.92
2023-04-22T11:52:16.158Z,4.00
2023-04-22T11:53:24.239Z,3.35
2023-04-22T11:54:37.013Z,4.22
2023-04-22T11:55:41.221Z,10.68
2023-04-22T11:56:43.312Z,3.67
2023-04-22T11:57:56.490Z,3.50
2023-04-22T11:58:58.465Z,3.67
2023-04-22T12:00:00.448Z,3.55
2023-04-22T12:01:02.779Z,3.78
2023-04-22T12:02:05.940Z,3.80
2023-04-22T12:03:15.261Z,2.88
2023-04-22T12:04:17.742Z,2.88
2023-04-22T12:05:19.923Z,2.97
2023-04-22T12:06:22.116Z,2.90
2023-04-22T12:07:24.080Z,3.10
2023-04-22T12:08:36.949Z,3.30
2023-04-22T12:09:45.654Z,2.60
2023-04-22T12:10:57.608Z,3.10
2023-04-22T12:12:03.737Z,2.80
2023-04-22T12:13:10.213Z,2.88
2023-04-22T12:14:14.673Z,3.05
2023-04-22T12:15:18.659Z,2.90
2023-04-22T12:16:24.388Z,2.97
2023-04-22T12:17:32.628Z,2.70
2023-04-22T12:18:38.709Z,3.10
2023-04-22T12:19:50.380Z,2.78
2023-04-22T12:20:52.791Z,2.92
2023-04-22T12:21:57.907Z,2.83
2023-04-22T12:23:03.858Z,2.92
2023-04-22T12:24:11.316Z,2.90
2023-04-22T12:25:18.621Z,2.92
2023-04-22T12:26:26.682Z,2.55
2023-04-22T12:27:29.298Z,3.15
2023-04-22T12:28:33.512Z,2.90
2023-04-22T12:29:36.503Z,2.75
2023-04-22T12:30:40.546Z,2.80
2023-04-22T12:31:42.817Z,2.85
2023-04-22T12:32:48.555Z,3.05
2023-04-22T12:33:51.220Z,3.20
2023-04-22T12:34:53.500Z,3.20
2023-04-22T12:35:55.310Z,2.90
2023-04-22T12:37:01.594Z,2.95
2023-04-22T12:38:03.382Z,2.67
2023-04-22T12:39:05.335Z,3.20
2023-04-22T12:40:07.971Z,2.80
2023-04-22T12:41:10.602Z,3.20
2023-04-22T12:42:13.470Z,3.03
2023-04-22T12:43:17.923Z,3.22
2023-04-22T12:44:19.933Z,3.10
2023-04-22T12:45:28.996Z,3.03
2023-04-22T12:47:35.600Z,2.80
2023-04-22T12:48:38.066Z,2.80
2023-04-22T12:50:06.420Z,2.85
2023-04-22T12:52:53.058Z,2.95
2023-04-22T12:57:29.885Z,2.60
2023-04-22T12:58:38.695Z,2.70
2023-04-22T12:59:40.927Z,2.95
2023-04-22T13:00:46.649Z,2.90
2023-04-22T13:01:49.002Z,3.00
2023-04-22T13:02:53.509Z,2.60
2023-04-22T13:03:56.819Z,2.30
2023-04-22T13:05:20.510Z,2.83
2023-04-22T13:06:25.277Z,3.00
2023-04-22T13:09:18.752Z,3.17
2023-04-22T13:10:25.736Z,2.90
2023-04-22T13:11:38.614Z,3.67
2023-04-22T13:12:46.052Z,3.22
2023-04-22T13:13:47.932Z,3.20
2023-04-22T13:14:49.897Z,2.95
2023-04-22T13:16:18.548Z,2.63
2023-04-22T13:17:21.252Z,2.80
2023-04-22T13:18:23.637Z,2.42
2023-04-22T13:19:51.735Z,2.80
2023-04-22T13:21:20.019Z,3.20
2023-04-22T13:22:21.944Z,2.85
2023-04-22T13:23:26.024Z,3.10
2023-04-22T13:24:44.606Z,3.00
2023-04-22T13:26:13.990Z,3.67
2023-04-22T13:27:28.996Z,3.10
2023-04-22T13:28:31.407Z,2.90
2023-04-22T13:29:34.565Z,2.92
2023-04-22T13:30:36.437Z,3.33
2023-04-22T13:31:41.599Z,3.45
2023-04-22T13:32:57.024Z,3.13
2023-04-22T13:34:06.908Z,2.65
2023-04-22T13:35:41.027Z,2.58
2023-04-22T13:36:45.295Z,3.03
2023-04-22T13:37:57.120Z,2.90
2023-04-22T13:39:03.015Z,3.13
2023-04-22T13:40:08.949Z,2.63
2023-04-22T13:41:11.538Z,2.70
2023-04-22T13:42:15.345Z,3.15
2023-04-22T13:43:29.863Z,3.03
2023-04-22T13:44:36.203Z,3.00
2023-04-22T13:45:38.262Z,2.65
2023-04-22T13:46:41.826Z,2.67
2023-04-22T13:47:56.370Z,3.20
2023-04-22T13:49:00.545Z,2.92
2023-04-22T13:50:03.397Z,2.50
2023-04-22T13:51:14.159Z,2.92
2023-04-22T13:52:19.027Z,2.40
2023-04-22T13:53:21.244Z,2.60
2023-04-22T13:54:23.300Z,2.70
2023-04-22T13:55:26.775Z,2.50
2023-04-22T13:56:29.487Z,2.78
2023-04-22T13:57:32.139Z,2.42
2023-04-22T13:58:36.479Z,2.55
2023-04-22T13:59:38.746Z,2.85
2023-04-22T14:00:43.060Z,2.58
2023-04-22T14:01:45.216Z,2.67
2023-04-22T14:03:00.857Z,3.00
2023-04-22T14:04:03.502Z,2.90
2023-04-22T14:05:06.062Z,3.00
2023-04-22T14:06:10.638Z,3.38
2023-04-22T14:07:13.145Z,2.92
2023-04-22T14:08:15.063Z,2.70
2023-04-22T14:09:18.031Z,2.20
2023-04-22T14:10:22.944Z,2.53
2023-04-22T14:11:25.211Z,2.55
2023-04-22T14:12:27.292Z,2.90
2023-04-22T14:13:30.172Z,2.40
2023-04-22T14:14:32.114Z,3.05
2023-04-22T14:15:38.915Z,2.88
2023-04-22T14:16:43.751Z,3.22
2023-04-22T14:17:49.335Z,3.65
2023-04-22T14:18:51.899Z,2.85
2023-04-22T14:19:54.370Z,2.60
2023-04-22T14:20:57.278Z,2.78
2023-04-22T14:22:00.693Z,3.40
2023-04-22T14:23:05.220Z,3.10
2023-04-22T14:24:07.633Z,2.85
2023-04-22T14:25:09.877Z,3.13
2023-04-22T14:26:12.513Z,3.22
2023-04-22T14:27:16.780Z,3.13
2023-04-22T14:28:18.828Z,3.47
2023-04-22T14:29:20.971Z,4.20
2023-04-22T14:30:23.408Z,3.85
2023-04-22T14:31:26.077Z,3.30
2023-04-22T14:32:29.458Z,3.25
2023-04-22T14:33:31.705Z,3.38
2023-04-22T14:34:33.553Z,3.67
2023-04-22T14:35:37.305Z,3.28
2023-04-22T14:36:39.636Z,3.53
2023-04-22T14:37:43.594Z,3.00
2023-04-22T14:38:45.565Z,3.58
2023-04-22T14:39:47.458Z,4.18
2023-04-22T14:40:50.557Z,2.90
2023-04-22T14:41:55.534Z,3.10
2023-04-22T14:42:59.328Z,3.17
2023-04-22T14:44:04.117Z,3.40
2023-04-22T14:45:06.777Z,3.25
2023-04-22T14:46:11.315Z,3.10
2023-04-22T14:47:13.515Z,4.35
2023-04-22T14:48:15.805Z,3.40
2023-04-22T14:49:17.797Z,2.67
2023-04-22T14:50:20.459Z,2.95
2023-04-22T14:51:22.838Z,3.05
2023-04-22T14:52:25.257Z,2.80
2023-04-22T14:53:27.456Z,2.97
2023-04-22T14:54:29.452Z,3.00
2023-04-22T14:55:32.174Z,2.80
2023-04-22T14:56:36.352Z,3.72
2023-04-22T14:57:38.728Z,3.42
2023-04-22T14:58:48.707Z,3.45
2023-04-22T14:59:51.336Z,3.38
2023-04-22T15:00:53.492Z,3.38
2023-04-22T15:02:02.709Z,3.47
2023-04-22T15:03:05.055Z,3.40
2023-04-22T15:04:08.283Z,3.20
2023-04-22T15:05:10.499Z,3.05
2023-04-22T15:06:12.670Z,3.03
2023-04-22T15:07:15.212Z,3.42
2023-04-22T15:08:17.309Z,3.42
2023-04-22T15:09:20.065Z,3.63
2023-04-22T15:10:25.473Z,3.60
2023-04-22T15:11:27.415Z,3.25
2023-04-22T15:12:30.962Z,3.03
2023-04-22T15:13:32.928Z,3.10
2023-04-22T15:14:36.096Z,3.00
2023-04-22T15:15:38.137Z,3.00
2023-04-22T15:16:40.474Z,3.15
2023-04-22T15:17:43.343Z,3.17
2023-04-22T15:18:45.290Z,3.40
2023-04-22T15:19:47.529Z,5.47
2023-04-22T15:20:49.577Z,3.55
2023-04-22T15:21:56.936Z,3.83
2023-04-22T15:22:59.109Z,3.53
2023-04-22T15:24:00.949Z,3.83
2023-04-22T15:25:04.107Z,3.92
2023-04-22T15:26:06.613Z,3.60
2023-04-22T15:27:08.730Z,4.05
2023-04-22T15:28:10.728Z,3.25
2023-04-22T15:29:13.144Z,4.07
2023-04-22T15:30:15.211Z,3.80
2023-04-22T15:31:20.831Z,3.67
2023-04-22T15:32:23.049Z,3.92
2023-04-22T15:33:24.970Z,3.92
2023-04-22T15:34:27.196Z,4.32
2023-04-22T15:35:29.168Z,3.88
2023-04-22T15:36:31.683Z,3.92
2023-04-22T15:37:34.238Z,4.30
2023-04-22T15:38:36.351Z,3.88
2023-04-22T15:39:38.601Z,4.25
2023-04-22T15:40:40.767Z,3.95
2023-04-22T15:41:44.158Z,3.90
2023-04-22T15:42:46.176Z,3.75
2023-04-22T15:43:48.568Z,3.58
2023-04-22T15:44:51.425Z,4.18
2023-04-22T15:45:55.161Z,4.30
2023-04-22T15:46:59.947Z,3.90
2023-04-22T15:48:02.471Z,4.53
2023-04-22T15:49:04.721Z,5.50
2023-04-22T15:50:09.465Z,4.20
2023-04-22T15:51:11.786Z,4.03
2023-04-22T15:52:13.969Z,4.00
2023-04-22T15:53:16.454Z,3.08
2023-04-22T15:54:18.829Z,4.90
2023-04-22T15:55:21.228Z,8.05
2023-04-22T15:56:24.468Z,7.00
2023-04-22T15:57:26.922Z,7.15
2023-04-22T15:58:32.381Z,6.82
2023-04-22T15:59:36.844Z,7.97
2023-04-22T16:00:39.542Z,4.45
2023-04-22T16:01:45.766Z,5.30
2023-04-22T16:02:55.688Z,7.15
2023-04-22T16:03:58.174Z,4.20
2023-04-22T16:05:00.774Z,4.07
2023-04-22T16:06:02.940Z,4.68
2023-04-22T16:07:06.145Z,4.07
2023-04-22T16:08:08.298Z,3.38
2023-04-22T16:09:13.228Z,3.95
2023-04-22T16:10:15.286Z,5.03
2023-04-22T16:11:17.319Z,4.60
2023-04-22T16:12:21.849Z,4.63
2023-04-22T16:13:24.340Z,4.93
2023-04-22T16:14:26.874Z,4.43
2023-04-22T16:15:28.947Z,3.53
2023-04-22T16:16:31.955Z,3.72
2023-04-22T16:17:34.182Z,4.90
2023-04-22T16:18:36.297Z,3.42
2023-04-22T16:19:39.232Z,3.80
2023-04-22T16:20:41.469Z,3.80
2023-04-22T16:21:43.526Z,3.80
2023-04-22T16:22:45.952Z,3.95
2023-04-22T16:23:54.097Z,3.63
2023-04-22T16:26:19.094Z,4.25
2023-04-22T16:27:22.148Z,4.13
2023-04-22T16:28:24.718Z,4.13
2023-04-22T16:29:27.044Z,3.80
2023-04-22T16:30:31.705Z,4.50
2023-04-22T16:31:38.710Z,4.10
2023-04-22T16:32:46.086Z,3.80
2023-04-22T16:33:48.936Z,3.90
2023-04-22T16:34:54.196Z,3.83
2023-04-22T16:37:18.514Z,4.22
2023-04-22T16:38:20.661Z,5.25
2023-04-22T16:39:22.897Z,4.00
2023-04-22T16:40:26.694Z,3.95
2023-04-22T16:41:28.760Z,3.90
2023-04-22T16:43:50.395Z,4.20
2023-04-22T16:44:54.185Z,4.50
2023-04-22T16:45:57.219Z,4.43
2023-04-22T16:48:44.209Z,4.90
2023-04-22T16:49:47.758Z,4.90
2023-04-22T16:50:51.609Z,4.78
2023-04-22T16:51:53.739Z,5.00
2023-04-22T16:52:57.087Z,5.55
2023-04-22T16:53:59.411Z,4.50
2023-04-22T16:55:10.968Z,4.85
2023-04-22T16:56:13.570Z,4.50
2023-04-22T16:57:19.119Z,4.85
2023-04-22T16:58:21.179Z,5.20
2023-04-22T16:59:23.411Z,5.40
2023-04-22T17:00:25.858Z,4.57
2023-04-22T17:01:35.180Z,5.35
2023-04-22T17:02:39.874Z,4.65
2023-04-22T17:03:43.909Z,4.57
